Map

Track Data

SID SEASON NUMBER BASIN SUBBASIN NAME ISO_TIME NATURE LAT LON WMO_WIND WMO_PRES WMO_AGENCY TRACK_TYPE DIST2LAND LANDFALL IFLAG USA_AGENCY USA_ATCF_ID USA_LAT USA_LON USA_RECORD USA_STATUS USA_WIND USA_PRES USA_SSHS USA_R34_NE USA_R34_SE USA_R34_SW USA_R34_NW USA_R50_NE USA_R50_SE USA_R50_SW USA_R50_NW USA_R64_NE USA_R64_SE USA_R64_SW USA_R64_NW USA_POCI USA_ROCI USA_RMW USA_EYE TOKYO_LAT TOKYO_LON TOKYO_GRADE TOKYO_WIND TOKYO_PRES TOKYO_R50_DIR TOKYO_R50_LONG TOKYO_R50_SHORT TOKYO_R30_DIR TOKYO_R30_LONG TOKYO_R30_SHORT TOKYO_LAND CMA_LAT CMA_LON CMA_CAT CMA_WIND CMA_PRES HKO_LAT HKO_LON HKO_CAT HKO_WIND HKO_PRES NEWDELHI_LAT NEWDELHI_LON NEWDELHI_GRADE NEWDELHI_WIND NEWDELHI_PRES NEWDELHI_CI NEWDELHI_DP NEWDELHI_POCI REUNION_LAT REUNION_LON REUNION_TYPE REUNION_WIND REUNION_PRES REUNION_TNUM REUNION_CI REUNION_RMW REUNION_R34_NE REUNION_R34_SE REUNION_R34_SW REUNION_R34_NW REUNION_R50_NE REUNION_R50_SE REUNION_R50_SW REUNION_R50_NW REUNION_R64_NE REUNION_R64_SE REUNION_R64_SW REUNION_R64_NW BOM_LAT BOM_LON BOM_TYPE BOM_WIND BOM_PRES BOM_TNUM BOM_CI BOM_RMW BOM_R34_NE BOM_R34_SE BOM_R34_SW BOM_R34_NW BOM_R50_NE BOM_R50_SE BOM_R50_SW BOM_R50_NW BOM_R64_NE BOM_R64_SE BOM_R64_SW BOM_R64_NW BOM_ROCI BOM_POCI BOM_EYE BOM_POS_METHOD BOM_PRES_METHOD NADI_LAT NADI_LON NADI_CAT NADI_WIND NADI_PRES WELLINGTON_LAT WELLINGTON_LON WELLINGTON_WIND WELLINGTON_PRES DS824_LAT DS824_LON DS824_STAGE DS824_WIND DS824_PRES TD9636_LAT TD9636_LON TD9636_STAGE TD9636_WIND TD9636_PRES TD9635_LAT TD9635_LON TD9635_WIND TD9635_PRES TD9635_ROCI NEUMANN_LAT NEUMANN_LON NEUMANN_CLASS NEUMANN_WIND NEUMANN_PRES MLC_LAT MLC_LON MLC_CLASS MLC_WIND MLC_PRES USA_GUST BOM_GUST BOM_GUST_PER REUNION_GUST REUNION_GUST_PER USA_SEAHGT USA_SEARAD_NE USA_SEARAD_SE USA_SEARAD_SW USA_SEARAD_NW STORM_SPEED STORM_DIR
2014059S13160 2014 18 SP MM HADI 2014-02-28 00:00:00 NR -13.4000 160.000 20 1002 bom main 350 350 ______O_______ -1 -13.4000 160.000 20 1002 1.00000 1.00000 34 34 15 287
2014059S13160 2014 18 SP EA HADI 2014-02-28 03:00:00 NR -13.1877 159.268 main 377 374 ______P_______ -1 -13.1877 159.268 21 1002 15 287
2014059S13160 2014 18 SP EA HADI 2014-02-28 06:00:00 NR -12.9693 158.569 main 381 375 ______P_______ -1 -12.9693 158.569 22 1002 14 289
2014059S13160 2014 18 SP EA HADI 2014-02-28 09:00:00 NR -12.7412 157.936 main 385 385 ______P_______ -1 -12.7412 157.936 23 1002 12 292
2014059S13160 2014 18 SP EA HADI 2014-02-28 12:00:00 NR -12.5000 157.400 25 1002 bom main 400 399 ______O_______ -1 -12.5000 157.400 25 1002 45 45 11 298
2014059S13160 2014 18 SP EA HADI 2014-02-28 15:00:00 NR -12.2450 156.987 main 407 396 ______P_______ -1 -12.2450 156.987 25 1002 9 307
2014059S13160 2014 18 SP EA HADI 2014-02-28 18:00:00 NR -11.9856 156.702 main 399 375 ______P_______ -1 -11.9856 156.702 25 1002 7 320
2014059S13160 2014 18 SP EA HADI 2014-02-28 21:00:00 NR -11.7334 156.540 main 375 354 ______P_______ -1 -11.7334 156.540 25 1002 5 338
2014059S13160 2014 18 SP EA HADI 2014-03-01 00:00:00 NR -11.5000 156.500 25 1003 bom main 354 334 ______O_______ -1 -11.5000 156.500 25 1003 1.50000 1.50000 45 45 5 2
2014059S13160 2014 18 SP EA HADI 2014-03-01 03:00:00 NR -11.2706 156.544 main 334 304 ______P_______ -1 -11.2706 156.544 25 1001 4 26
2014059S13160 2014 18 SP EA HADI 2014-03-01 06:00:00 NR -11.1000 156.700 25 1000 bom main 304 286 ______O_______ -1 -11.1000 156.700 25 1000 1.50000 1.50000 45 45 5 57
2014059S13160 2014 18 SP EA HADI 2014-03-01 09:00:00 NR -11.0207 156.930 main 286 276 ______P_______ -1 -11.0207 156.930 25 1002 5 78
2014059S13160 2014 18 SP EA HADI 2014-03-01 12:00:00 NR -11.0000 157.200 25 1004 bom main 276 272 ______O_______ -1 -11.0000 157.200 25 1004 45 45 5 90
2014059S13160 2014 18 SP EA HADI 2014-03-01 15:00:00 NR -11.0187 157.437 main 272 269 ______P_______ -1 -11.0187 157.437 25 1003 5 97
2014059S13160 2014 18 SP EA HADI 2014-03-01 18:00:00 NR -11.0562 157.656 main 272 262 ______P_______ -1 -11.0562 157.656 25 1003 4 97
2014059S13160 2014 18 SP EA HADI 2014-03-01 21:00:00 NR -11.0656 157.847 main 262 238 ______P_______ -1 -11.0656 157.847 25 1003 3 81
2014059S13160 2014 18 SP EA HADI 2014-03-02 00:00:00 NR -11.0000 158.000 25 1003 bom main 238 217 ______O_______ -1 -11.0000 158.000 25 1003 45 45 4 47
2014059S13160 2014 18 SP EA HADI 2014-03-02 03:00:00 NR -10.7951 158.142 main 217 196 ______P_______ -1 -10.7951 158.142 25 1002 4 26
2014059S13160 2014 18 SP EA HADI 2014-03-02 06:00:00 NR -10.6000 158.200 25 1001 bom main 196 189 ______O_______ -1 -10.6000 158.200 25 1001 45 45 3 6
2014059S13160 2014 18 SP EA HADI 2014-03-02 09:00:00 NR -10.5084 158.147 main 198 198 ______P_______ -1 -10.5084 158.147 22 1002 2 297
2014059S13160 2014 18 SP EA HADI 2014-03-02 12:00:00 NR -10.5000 158.000 20 1003 bom main 208 208 ______O_______ -1 -10.5000 158.000 20 1003 40 40 4 262
2014059S13160 2014 18 SP EA HADI 2014-03-02 15:00:00 NR -10.5643 157.741 main 224 224 ______P_______ -1 -10.5643 157.741 20 1002 6 251
2014059S13160 2014 18 SP EA HADI 2014-03-02 18:00:00 NR -10.6941 157.425 main 239 239 ______P_______ -1 -10.6941 157.425 20 1002 7 244
2014059S13160 2014 18 SP EA HADI 2014-03-02 21:00:00 NR -10.8518 157.147 main 268 268 ______P_______ -1 -10.8518 157.147 20 1002 5 234
2014059S13160 2014 18 SP EA HADI 2014-03-03 00:00:00 NR -11.0000 157.000 20 1002 bom main 282 282 ______O_______ -1 -11.0000 157.000 20 1002 40 40 3 187
2014059S13160 2014 18 SP EA HADI 2014-03-03 03:00:00 NR -11.1350 157.098 main 290 290 ______P_______ -1 -11.1350 157.098 20 1002 3 135
2014059S13160 2014 18 SP EA HADI 2014-03-03 06:00:00 NR -11.2000 157.200 20 1002 bom main 298 290 ______O_______ -1 -11.2000 157.200 20 1002 40 40 0 83
2014059S13160 2014 18 SP EA HADI 2014-03-03 09:00:00 NR -11.1300 157.130 main 290 282 ______P_______ -1 -11.1300 157.130 20 1003 3 315
2014059S13160 2014 18 SP EA HADI 2014-03-03 12:00:00 NR -11.0000 157.000 20 1004 bom main 282 268 ______O_______ -1 -11.0000 157.000 20 1004 40 40 3 346
2014059S13160 2014 18 SP EA HADI 2014-03-03 15:00:00 NR -10.8693 157.057 main 268 261 ______P_______ -1 -10.8693 157.057 20 1003 3 315
2014059S13160 2014 18 SP EA HADI 2014-03-03 18:00:00 NR -10.8000 156.800 20 1003 bom main 269 269 ______O_______ -1 -10.8000 156.800 20 1003 40 40 13 270
2014059S13160 2014 18 SP EA HADI 2014-03-03 21:00:00 NR -10.8749 155.782 main 329 329 ______P_______ -1 -10.8749 155.782 20 1003 23 265
2014059S13160 2014 18 SP EA HADI 2014-03-04 00:00:00 NR -11.0000 154.500 20 1003 bom main 417 311 ______O_______ -1 -11.0000 154.500 20 1003 40 40 24 264
2014059S13160 2014 18 SP EA HADI 2014-03-04 03:00:00 NR -11.1358 153.400 main 300 211 ______P_______ -1 -11.1358 153.400 21 262
2014059S13160 2014 18 SP EA HADI 2014-03-04 06:00:00 NR -11.2791 152.402 main 201 133 ______P_______ -1 -11.2791 152.402 18 262
2014059S13160 2014 18 SP EA HADI 2014-03-04 09:00:00 NR -11.4021 151.572 main 133 104 ______P_______ -1 -11.4021 151.572 14 262
2014059S13160 2014 18 SP EA HADI 2014-03-04 12:00:00 NR -11.4777 150.979 main 105 95 ______P_______ -1 -11.4777 150.979 9 265
2014059S13160 2014 18 SP EA HADI 2014-03-04 15:00:00 NR -11.4788 150.691 main 95 84 ______P_______ -1 -11.4788 150.691 2 297
2014059S13160 2014 18 SP EA HADI 2014-03-04 18:00:00 NR -11.3778 150.775 main 89 79 ______P_______ -1 -11.3778 150.775 7 61
2014059S13160 2014 18 SP EA HADI 2014-03-04 21:00:00 NR -11.1454 151.299 main 86 86 ______P_______ -1 -11.1454 151.299 17 68
2014059S13160 2014 18 SP EA HADI 2014-03-05 00:00:00 NR -10.7500 152.330 bom main 175 176 ______O_______ -1 -10.7500 152.330 30 68
2014059S13160 2014 18 SP EA HADI 2014-03-05 03:00:00 NR -9.99449 154.154 main 380 221 ______P_______ -1 -9.99449 154.154 36 69
2014059S13160 2014 18 SP EA HADI 2014-03-05 06:00:00 NR -9.50000 155.700 bom main 212 180 ______O_______ -1 -9.50000 155.700 21 83
2014059S13160 2014 18 SP EA HADI 2014-03-05 09:00:00 NR -9.73233 156.216 main 191 191 ______P_______ -1 -9.73233 156.216 9 145
2014059S13160 2014 18 SP EA HADI 2014-03-05 12:00:00 NR -10.2000 156.200 bom main 239 239 ______O_______ -1 -10.2000 156.200 6 187
2014059S13160 2014 18 SP EA HADI 2014-03-05 15:00:00 NR -10.2825 156.152 main 249 249 ______P_______ -1 -10.2825 156.152 4 213
2014059S13160 2014 18 SP EA HADI 2014-03-05 18:00:00 NR -10.5000 156.000 bom main 279 279 ______O_______ -1 -10.5000 156.000 10 191
2014059S13160 2014 18 SP EA HADI 2014-03-05 21:00:00 NR -11.2398 155.967 main 350 350 ______P_______ -1 -11.2398 155.967 16 187
2014059S13160 2014 18 SP EA HADI 2014-03-06 00:00:00 NR -12.1000 155.800 25 1004 bom main 449 449 ______O_______ -1 -12.1000 155.800 25 1004 1.50000 1.50000 150 1008 45 45 16 205
2014059S13160 2014 18 SP EA HADI 2014-03-06 03:00:00 NR -12.7179 155.273 main 534 523 ______P_______ -1 -12.7179 155.273 25 1003 150 1007 15 224
2014059S13160 2014 18 SP EA HADI 2014-03-06 06:00:00 NR -13.2000 154.700 25 1002 bom main 523 518 ______O_______ -1 -13.2000 154.700 25 1002 1.50000 1.50000 150 1006 45 45 12 222
2014059S13160 2014 18 SP EA HADI 2014-03-06 09:00:00 NR -13.5720 154.472 main 532 524 ______P_______ -1 -13.5720 154.472 25 1003 9 215
2014059S13160 2014 18 SP EA HADI 2014-03-06 12:00:00 NR -13.9000 154.200 25 1005 bom main 530 518 ______O_______ -1 -13.9000 154.200 25 1005 1.50000 1.50000 45 45 12 229
2014059S13160 2014 18 SP EA HADI 2014-03-06 15:00:00 NR -14.3680 153.538 main 523 512 ______P_______ -1 -14.3680 153.538 25 1004 16 239
2014059S13160 2014 18 SP EA HADI 2014-03-06 18:00:00 NR -14.7000 152.800 25 bom main 512 490 ______I_______ -1 -14.7000 152.800 25 1003 1.50000 1.50000 45 45 13 258
2014059S13160 2014 18 SP EA HADI 2014-03-06 21:00:00 NR -14.6448 152.247 main 476 451 ______P_______ -1 -14.6448 152.247 20 1002 10 282
2014059S13160 2014 18 SP EA HADI 2014-03-07 00:00:00 NR -14.5000 151.800 15 1001 bom main 451 441 ______O_______ -1 -14.5000 151.800 20 15 1001 139 1010 7 45 45 8 276
2014059S13160 2014 18 SP EA HADI 2014-03-07 03:00:00 NR -14.5624 151.413 main 450 445 ______P_______ -1 -14.5624 151.413 20 17 1000 134 1008 7 254
2014059S13160 2014 18 SP EA HADI 2014-03-07 06:00:00 NR -14.7000 151.100 20 1000 bom main 454 452 ______O_______ -1 -14.7000 151.100 20 20 1000 1.00000 1.00000 130 1006 3 7 45 45 6 242
2014059S13160 2014 18 SP EA HADI 2014-03-07 09:00:00 NR -14.8499 150.842 main 461 461 ______P_______ -1 -14.8499 150.842 20 20 999 154 1008 6 238
2014059S13160 2014 18 SP EA HADI 2014-03-07 12:00:00 NR -15.0000 150.600 20 999 bom main 481 481 ______O_______ -1 -15.0000 150.600 20 20 999 1.00000 1.00000 179 1010 3 7 45 45 6 245
2014059S13160 2014 18 SP EA HADI 2014-03-07 15:00:00 NR -15.1000 150.292 main 492 482 ______P_______ -1 -15.1000 150.292 20 20 999 169 1009 6 251
2014059S13160 2014 18 SP EA HADI 2014-03-07 18:00:00 NR -15.2000 150.000 20 999 bom main 482 458 ______O_______ -1 -15.2000 150.000 20 20 999 1.00000 1.00000 159 1008 3 7 45 45 6 245
2014059S13160 2014 18 SP EA HADI 2014-03-07 21:00:00 NR -15.3425 149.755 main 458 429 ______P_______ -1 -15.3425 149.755 20 22 999 139 1008 5 232
2014059S13160 2014 18 SP EA HADI 2014-03-08 00:00:00 NR -15.5000 149.600 25 1000 bom main 429 414 ______O_______ -1 -15.5000 149.600 20 25 1000 1.50000 1.50000 119 1008 3 7 45 45 4 217
2014059S13160 2014 18 SP EA HADI 2014-03-08 03:00:00 NR -15.6274 149.533 main 414 409 ______P_______ -1 -15.6274 149.533 20 25 999 124 1007 3 0
2014059S13160 2014 18 SP EA HADI 2014-03-08 06:00:00 NR -15.8000 149.600 25 999 bom main 413 408 ______O_______ -1 -15.8000 149.600 20 25 999 1.00000 1.50000 130 1006 3 7 45 45 6 145
2014059S13160 2014 18 SP EA HADI 2014-03-08 09:00:00 NR -16.0777 149.857 main 430 426 ______P_______ -1 -16.0777 149.857 20 25 999 150 1007 8 141
2014059S13160 2014 18 SP EA HADI 2014-03-08 12:00:00 NR -16.4000 150.100 25 999 bom main 440 415 ______O_______ -1 -16.4000 150.100 20 25 999 1.50000 1.50000 170 1008 3 7 45 45 7 158
2014059S13160 2014 18 SP EA HADI 2014-03-08 15:00:00 NR -16.6924 150.110 main 415 380 ______P_______ -1 -16.6924 150.110 20 25 998 194 1008 6 189
2014059S13160 2014 18 SP EA HADI 2014-03-08 18:00:00 NR -17.0000 150.000 25 997 bom main 380 336 ______O_______ -1 -17.0000 150.000 20 25 997 2.00000 2.00000 219 1008 3 7 45 45 7 201
2014059S13160 2014 18 SP EA HADI 2014-03-08 21:00:00 NR -17.3725 149.843 main 331 301 ______P_______ -1 -17.3725 149.843 20 25 997 179 1008 8 213
2014059S13160 2014 18 SP EA HADI 2014-03-09 00:00:00 NR -17.6400 149.560 25 997 bom main 301 286 O_____O_______ jtwc_sh SH192014 -17.4000 149.000 DB 15 1010 -3 1005 180 45 -17.7000 149.700 20 25 997 2.00000 2.00000 139 1008 3 7 45 45 4 218
2014059S13160 2014 18 SP EA HADI 2014-03-09 03:00:00 NR -17.7150 149.565 main 291 291 O_____P_______ jtwc_sh SH192014 -17.4000 149.400 DB 20 1007 -3 1005 180 45 -17.8724 149.647 20 25 996 169 1008 2 121
2014059S13160 2014 18 SP EA HADI 2014-03-09 06:00:00 NR -17.7429 149.743 25 996 bom main 296 288 O_____O_______ jtwc_sh SH192014 -17.4000 149.800 DB 20 1007 -3 1005 180 45 -18.0000 149.700 20 25 996 2.00000 2.00000 199 1008 3 7 45 45 4 116
2014059S13160 2014 18 SP EA HADI 2014-03-09 09:00:00 NR -17.8960 149.958 main 295 281 P_____P_______ SH192014 -17.5920 150.054 DB 20 1007 -3 1005 180 45 -18.2000 149.862 20 30 996 154 1008 6 136
2014059S13160 2014 18 SP EA HADI 2014-03-09 12:00:00 NR -18.1500 150.150 35 996 bom main 286 264 O_____O_______ jtwc_sh SH192014 -17.9000 150.200 DB 20 1007 -3 1005 180 45 -18.4000 150.100 21 35 996 2.50000 2.50000 59 59 110 1008 3 7 45 45 6 145
2014059S13160 2014 18 SP EA HADI 2014-03-09 15:00:00 NR -18.3937 150.325 main 264 253 P_____P_______ SH192014 -18.2224 150.293 DB 22 1005 -3 1005 185 45 -18.5650 150.357 21 35 995 69 59 134 1008 6 144
2014059S13160 2014 18 SP EA HADI 2014-03-09 18:00:00 TS -18.6000 150.500 35 995 bom main 260 260 O_____O_______ jtwc_sh SH192014 -18.5000 150.400 TD 25 1004 -1 1005 190 45 -18.7000 150.600 30 35 995 3.00000 3.00000 24 79 79 59 159 1008 7 49 49 5 132
2014059S13160 2014 18 SP EA HADI 2014-03-09 21:00:00 TS -18.7188 150.704 main 267 267 P_____P_______ SH192014 -18.6226 150.643 TD 27 1002 -1 1005 190 45 -18.8149 150.765 30 37 995 24 79 79 59 159 1009 4 118
2014059S13160 2014 18 SP EA HADI 2014-03-10 00:00:00 TS -18.8000 150.900 40 996 bom main 276 276 O_____O_______ jtwc_sh SH192014 -18.7000 150.900 TD 30 1000 -1 1005 190 45 -18.9000 150.900 30 40 996 3.00000 3.00000 24 79 79 59 159 1010 5 55 55 4 122
2014059S13160 2014 18 SP EA HADI 2014-03-10 03:00:00 TS -18.9225 151.054 main 287 281 P_____P_______ SH192014 -18.8724 151.057 TD 32 998 -1 1005 190 47 -18.9725 151.050 30 40 994 24 79 79 44 144 1008 3 125
2014059S13160 2014 18 SP EA HADI 2014-03-10 06:00:00 TS -19.0000 151.200 40 992 bom main 290 290 O_____O_______ jtwc_sh SH192014 -19.0000 151.200 TS 35 996 0 1006 190 50 -19.0000 151.200 30 40 992 3.00000 3.00000 24 79 79 30 130 1006 5 55 55 3 105
2014059S13160 2014 18 SP EA HADI 2014-03-10 09:00:00 TS -19.0100 151.401 main 308 308 P_____P_______ SH192014 -19.0176 151.423 TS 37 994 0 1006 180 45 -19.0025 151.380 30 40 994 24 79 79 134 1008 3 73
2014059S13160 2014 18 SP EA HADI 2014-03-10 12:00:00 TS -18.9000 151.550 40 996 bom main 332 332 O_____O_______ jtwc_sh SH192014 -18.9000 151.600 TS 40 993 0 1007 170 40 -18.9000 151.500 21 40 996 2.50000 3.00000 24 79 79 139 1010 5 55 55 4 23
2014059S13160 2014 18 SP EA HADI 2014-03-10 15:00:00 TS -18.6300 151.574 main 349 349 P_____P_______ SH192014 -18.6299 151.660 TS 37 994 0 1007 170 40 -18.6300 151.487 21 35 997 129 1009 6 356
2014059S13160 2014 18 SP EA HADI 2014-03-10 18:00:00 TS -18.3000 151.500 30 999 bom main 361 360 O_____O_______ jtwc_sh SH192014 -18.3000 151.600 TS 35 996 0 1007 170 40 -18.3000 151.400 20 30 999 2.50000 2.50000 119 1008 7 49 49 6 339
2014059S13160 2014 18 SP EA HADI 2014-03-10 21:00:00 TS -18.0351 151.335 main 367 367 P_____P_______ SH192014 -18.0426 151.392 TS 32 998 -1 1007 170 40 -18.0275 151.277 20 30 999 109 1009 6 330
2014059S13160 2014 18 SP EA HADI 2014-03-11 00:00:00 TS -17.8000 151.200 30 1000 bom main 376 376 O_____O_______ jtwc_sh SH192014 -17.8000 151.200 TD 30 1000 -1 1008 170 40 -17.8000 151.200 20 30 1000 2.00000 2.50000 99 1010 7 7 45 45 5 341
2014059S13160 2014 18 SP EA HADI 2014-03-11 03:00:00 TS -17.5810 151.170 main 393 393 P_____P_______ SH192014 -17.5198 151.145 TD 25 1003 -1 1007 160 40 -17.6422 151.195 20 27 1000 129 1010 4 19
2014059S13160 2014 18 SP EA HADI 2014-03-11 06:00:00 NR -17.4000 151.350 25 1000 bom main 424 424 O_____O_______ jtwc_sh SH192014 -17.3000 151.300 DB 20 1007 -3 1006 150 40 -17.5000 151.400 20 25 1000 1.50000 2.00000 159 1010 7 7 45 45 7 66
2014059S13160 2014 18 SP EA HADI 2014-03-11 09:00:00 NR -17.2830 151.855 main 468 468 P_____P_______ SH192014 -17.2578 151.740 DB 20 1007 -3 1006 150 40 -17.3081 151.970 20 25 1000 11 77
2014059S13160 2014 18 SP EA HADI 2014-03-11 12:00:00 NR -17.1500 152.450 25 1001 bom main 529 521 O_____O_______ jtwc_sh SH192014 -17.2000 152.300 DB 20 1007 -3 1006 150 40 -17.1000 152.600 20 25 1001 1.00000 1.50000 7 45 45 9 71
2014059S13160 2014 18 SP EA HADI 2014-03-11 15:00:00 NR -16.9668 152.791 main 560 560 P_____P_______ SH192014 -16.9745 152.712 DB 20 1007 -3 1006 150 40 -16.9592 152.869 20 26 1002 9 55
2014059S13160 2014 18 SP EA HADI 2014-03-11 18:00:00 NR -16.6500 153.200 bom main 621 614 O_____I_______ jtwc_sh SH192014 -16.6000 153.200 DB 20 1007 -3 1006 150 40 -16.7000 153.200 27 1003 14 50
2014059S13160 2014 18 SP EA HADI 2014-03-11 21:00:00 NR -16.0896 153.863 main 706 691 P_____P_______ SH192014 -16.0644 153.845 DB 20 1007 -3 1006 150 40 -16.1148 153.881 28 1004 19 52
2014059S13160 2014 18 SP EA HADI 2014-03-12 00:00:00 NR -15.5000 154.757 30 1006 bom main 705 704 O_____O_______ jtwc_sh SH192014 -15.5000 154.700 DB 20 1007 -3 1006 150 40 -15.5000 154.800 30 1006 2.00000 2.00000 45 45 22 63
2014059S13160 2014 18 SP EA HADI 2014-03-12 03:00:00 NR -15.1133 155.847 main 735 652 P_____P_______ SH192014 -15.0592 155.785 DB 20 1007 -3 1006 150 40 -15.1404 155.877 30 1004 23 74
2014059S13160 2014 18 SP EA HADI 2014-03-12 06:00:00 NR -14.8600 157.000 30 1003 bom main 647 586 O_____O_______ jtwc_sh SH192014 -14.7000 157.000 DB 20 1007 -3 1006 150 40 -14.9000 157.000 30 1003 2.00000 2.00000 45 45 21 78
2014059S13160 2014 18 SP EA HADI 2014-03-12 09:00:00 NR -14.6843 157.972 main 582 520 ______P_______ SH192014 DB -3 -14.6843 157.972 30 1002 19 79
2014059S13160 2014 18 SP EA HADI 2014-03-12 12:00:00 NR -14.5000 158.900 30 1001 bom main 520 463 ______O_______ -1 -14.5000 158.900 30 1001 2.00000 2.00000 45 45 17 80
2014059S13160 2014 18 SP EA HADI 2014-03-12 15:00:00 NR -14.3947 159.705 main 463 388 ______P_______ -1 -14.3947 159.705 19 78
2014059S13160 2014 18 SP MM HADI 2014-03-12 18:00:00 NR -14.1000 160.800 bom main 385 280 ______O_______ -1 -14.1000 160.800 31 68
2014059S13160 2014 18 SP MM HADI 2014-03-12 21:00:00 NR -13.2309 162.675 main 272 259 ______P_______ -1 -13.2309 162.675 41 65
2014059S13160 2014 18 SP MM HADI 2014-03-13 00:00:00 NR -12.4000 164.600 bom main 308 292 ______O_______ -1 -12.4000 164.600 33 72
2014059S13160 2014 18 SP MM HADI 2014-03-13 03:00:00 NR -12.1991 165.906 main 289 268 ______P_______ -1 -12.1991 165.906 23 87
2014059S13160 2014 18 SP MM HADI 2014-03-13 06:00:00 NR -12.3000 166.900 bom main 270 270 ______O_______ -1 -12.3000 166.900 20 92
2014059S13160 2014 18 SP MM HADI 2014-03-13 09:00:00 NR -12.2813 167.916 main 303 303 ______P_______ -1 -12.2813 167.916 19 90
2014059S13160 2014 18 SP MM HADI 2014-03-13 12:00:00 NR -12.2913 168.821 main 353 353 ______P_______ -1 -12.2913 168.821 17 92
2014059S13160 2014 18 SP MM HADI 2014-03-13 15:00:00 NR -12.3300 169.622 main 405 405 ______P_______ -1 -12.3300 169.622 15 94
2014059S13160 2014 18 SP MM HADI 2014-03-13 18:00:00 NR -12.3972 170.322 main 452 452 ______P_______ -1 -12.3972 170.322 13 97
2014059S13160 2014 18 SP MM HADI 2014-03-13 21:00:00 NR -12.4927 170.928 main 496 496 ______P_______ -1 -12.4927 170.928 11 101
2014059S13160 2014 18 SP MM HADI 2014-03-14 00:00:00 NR -12.6159 171.443 main 536 536 ______P_______ -1 -12.6159 171.443 10 107
2014059S13160 2014 18 SP MM HADI 2014-03-14 03:00:00 NR -12.7664 171.873 main 573 573 ______P_______ -1 -12.7664 171.873 8 113
2014059S13160 2014 18 SP MM HADI 2014-03-14 06:00:00 NR -12.9434 172.223 main 598 594 ______P_______ -1 -12.9434 172.223 7 122
2014059S13160 2014 18 SP MM HADI 2014-03-14 09:00:00 NR -13.1462 172.496 main 619 613 ______P_______ -1 -13.1462 172.496 6 133
2014059S13160 2014 18 SP MM HADI 2014-03-14 12:00:00 NR -13.3739 172.697 main 618 612 ______P_______ -1 -13.3739 172.697 6 146
2014059S13160 2014 18 SP MM HADI 2014-03-14 15:00:00 NR -13.6255 172.830 main 616 610 ______P_______ -1 -13.6255 172.830 6 159
2014059S13160 2014 18 SP MM HADI 2014-03-14 18:00:00 NR -13.9000 172.900 bom main 610 600 ______O_______ -1 -13.9000 172.900 5 166
2014059S13160 2014 18 SP MM HADI 2014-03-14 21:00:00 NR -14.1397 172.956 main 610 582 ______P_______ -1 -14.1397 172.956 6 179
2014059S13160 2014 18 SP MM HADI 2014-03-15 00:00:00 NR -14.5000 172.900 bom main 582 552 ______O_______ -1 -14.5000 172.900 10 191
2014059S13160 2014 18 SP MM HADI 2014-03-15 03:00:00 NR -15.1047 172.762 main 552 507 ______P_______ -1 -15.1047 172.762 13 198
2014059S13160 2014 18 SP MM HADI 2014-03-15 06:00:00 NR -15.7000 172.500 bom main 507 471 ______O_______ -1 -15.7000 172.500 11 213
2014059S13160 2014 18 SP MM HADI 2014-03-15 09:00:00 NR -16.0125 172.141 main 460 417 ______P_______ -1 -16.0125 172.141 9 242
2014059S13160 2014 18 SP MM HADI 2014-03-15 12:00:00 NR -16.1187 171.669 main 417 353 ______P_______ -1 -16.1187 171.669 10 267
2014059S13160 2014 18 SP MM HADI 2014-03-15 15:00:00 NR -16.0655 171.113 main 353 292 ______P_______ -1 -16.0655 171.113 11 281
2014059S13160 2014 18 SP MM HADI 2014-03-15 18:00:00 NR -15.9000 170.500 bom main 292 234 ______O_______ -1 -15.9000 170.500 13 288
2014059S13160 2014 18 SP MM HADI 2014-03-15 21:00:00 NR -15.6747 169.850 main 234 180 ______P_______ -1 -15.6747 169.850 14 292
2014059S13160 2014 18 SP MM HADI 2014-03-16 00:00:00 NR -15.4000 169.200 bom main 180 154 ______O_______ -1 -15.4000 169.200 13 293
2014059S13160 2014 18 SP MM HADI 2014-03-16 03:00:00 NR -15.1682 168.620 main 149 107 ______P_______ -1 -15.1682 168.620 11 291
2014059S13160 2014 18 SP MM HADI 2014-03-16 06:00:00 NR -14.9939 168.119 main 107 65 ______P_______ -1 -14.9939 168.119 9 288
2014059S13160 2014 18 SP MM HADI 2014-03-16 09:00:00 NR -14.8724 167.688 main 65 31 ______P_______ -1 -14.8724 167.688 8 284
2014059S13160 2014 18 SP MM HADI 2014-03-16 12:00:00 NR -14.7986 167.321 main 31 22 ______P_______ -1 -14.7986 167.321 7 279
2014059S13160 2014 18 SP MM HADI 2014-03-16 15:00:00 NR -14.7675 167.010 main 22 10 ______P_______ -1 -14.7675 167.010 6 273
2014059S13160 2014 18 SP MM HADI 2014-03-16 18:00:00 NR -14.7737 166.747 main 0 0 ______P_______ -1 -14.7737 166.747 5 265
2014059S13160 2014 18 SP MM HADI 2014-03-16 21:00:00 NR -14.8120 166.526 main 0 0 ______P_______ -1 -14.8120 166.526 4 255
2014059S13160 2014 18 SP MM HADI 2014-03-17 00:00:00 NR -14.8773 166.339 main 24 24 ______P_______ -1 -14.8773 166.339 4 246
2014059S13160 2014 18 SP MM HADI 2014-03-17 03:00:00 NR -14.9641 166.181 main 39 39 ______P_______ -1 -14.9641 166.181 3 237
2014059S13160 2014 18 SP MM HADI 2014-03-17 06:00:00 NR -15.0670 166.042 main 63 63 ______P_______ -1 -15.0670 166.042 3 229
2014059S13160 2014 18 SP MM HADI 2014-03-17 09:00:00 NR -15.1808 165.918 main 75 75 ______P_______ -1 -15.1808 165.918 3 225
2014059S13160 2014 18 SP MM HADI 2014-03-17 12:00:00 NR -15.3000 165.800 bom main 85 ______O_______ -1 -15.3000 165.800 3 223

Digital Typhoon Data and Search

About IBTrACS Database

This database is a web-friendly format of International Best Track Archive for Climate Stewardship (IBTrACS), a global best track data archive curated by NOAA dating back to 1842.

Updated: 2021-10-27